createdAt,value
2023-03-29T05:03:05.493Z,36.81
2023-03-29T05:04:06.511Z,35.77
2023-03-29T05:05:05.474Z,35.61
2023-03-29T05:06:06.514Z,35.54
2023-03-29T05:07:06.558Z,35.53
2023-03-29T05:08:06.567Z,35.51
2023-03-29T05:09:06.569Z,35.41
2023-03-29T05:10:06.593Z,35.38
2023-03-29T05:11:06.639Z,35.36
2023-03-29T05:12:06.692Z,35.41
2023-03-29T05:16:05.877Z,35.29
2023-03-29T05:17:06.876Z,35.27
2023-03-29T05:18:06.953Z,35.23
2023-03-29T05:19:06.954Z,35.25
2023-03-29T05:25:06.078Z,35.26
2023-03-29T05:26:07.075Z,35.22
2023-03-29T05:27:07.096Z,35.18
2023-03-29T05:30:06.133Z,35.17
2023-03-29T05:31:06.411Z,35.21
2023-03-29T05:32:07.343Z,35.16
2023-03-29T05:33:07.207Z,35.15
2023-03-29T05:34:07.195Z,35.10
2023-03-29T05:35:07.244Z,35.11
2023-03-29T05:36:07.261Z,35.15
2023-03-29T05:37:07.255Z,35.12
2023-03-29T05:38:07.281Z,35.11
2023-03-29T05:39:07.318Z,35.17
2023-03-29T05:40:07.307Z,35.16
2023-03-29T05:44:06.369Z,35.20
2023-03-29T05:45:07.377Z,35.15
2023-03-29T05:46:07.473Z,35.08
2023-03-29T05:47:07.417Z,35.15
2023-03-29T05:48:07.479Z,35.10
2023-03-29T05:52:06.472Z,35.11
2023-03-29T05:53:06.484Z,35.10
2023-03-29T05:54:07.498Z,35.08
2023-03-29T05:55:07.522Z,35.13
2023-03-29T05:56:07.543Z,35.12
2023-03-29T05:57:07.891Z,35.13
2023-03-29T06:01:06.588Z,35.16
2023-03-29T06:02:07.895Z,35.14
2023-03-29T06:03:18.028Z,35.16
2023-03-29T06:07:06.615Z,35.13
2023-03-29T06:08:08.310Z,35.15
2023-03-29T06:09:07.577Z,35.23
2023-03-29T06:10:07.574Z,35.30
2023-03-29T06:11:07.934Z,35.33
2023-03-29T06:15:06.523Z,35.53
2023-03-29T06:16:07.548Z,35.65
2023-03-29T06:17:07.558Z,35.72
2023-03-29T06:20:06.530Z,35.76
2023-03-29T06:21:07.491Z,35.90
2023-03-29T06:22:07.537Z,35.91
2023-03-29T06:23:07.502Z,35.99
2023-03-29T06:24:07.461Z,36.07
2023-03-29T06:25:07.466Z,36.20
2023-03-29T06:28:06.466Z,36.35
2023-03-29T06:31:06.738Z,36.47
2023-03-29T06:32:07.435Z,36.53
2023-03-29T06:35:06.409Z,36.63
2023-03-29T06:36:07.439Z,36.67
2023-03-29T06:38:06.376Z,36.75
2023-03-29T06:39:07.406Z,36.80
2023-03-29T06:40:07.388Z,36.89
2023-03-29T06:41:07.421Z,36.93
2023-03-29T06:42:20.016Z,36.96
2023-03-29T06:45:06.336Z,37.14
2023-03-29T06:46:07.360Z,37.14
2023-03-29T06:47:07.312Z,37.16
2023-03-29T06:48:06.377Z,37.19
2023-03-29T06:49:07.309Z,37.23
2023-03-29T06:51:06.273Z,37.27
2023-03-29T06:52:07.345Z,37.30
2023-03-29T06:53:07.271Z,37.42
2023-03-29T06:59:06.227Z,37.67
2023-03-29T07:00:07.224Z,37.76
2023-03-29T07:01:07.251Z,37.70
2023-03-29T07:04:06.217Z,37.81
2023-03-29T07:05:06.180Z,37.87
2023-03-29T07:06:06.186Z,37.90
2023-03-29T07:07:07.165Z,38.01
2023-03-29T07:09:06.154Z,38.10
2023-03-29T07:10:07.152Z,38.09
2023-03-29T07:11:07.183Z,38.11
2023-03-29T07:12:07.119Z,38.19
2023-03-29T07:13:07.126Z,38.29
2023-03-29T07:14:07.150Z,38.32
2023-03-29T07:18:06.167Z,38.47
2023-03-29T07:19:06.152Z,38.49
2023-03-29T07:20:07.091Z,38.54
2023-03-29T07:21:07.129Z,38.56
2023-03-29T07:23:06.040Z,38.67
2023-03-29T07:24:07.050Z,38.73
2023-03-29T07:26:06.034Z,38.85
2023-03-29T07:27:07.038Z,38.87
2023-03-29T07:28:07.043Z,38.94
2023-03-29T07:29:07.105Z,38.91
2023-03-29T07:30:07.130Z,39.03
2023-03-29T07:31:07.210Z,39.06
2023-03-29T07:32:07.250Z,39.17
2023-03-29T07:33:07.396Z,39.25
2023-03-29T07:34:06.335Z,39.27
2023-03-29T07:35:07.369Z,39.34
2023-03-29T07:36:06.492Z,39.40
2023-03-29T07:37:07.473Z,39.53
2023-03-29T07:38:07.487Z,39.50
2023-03-29T07:39:07.524Z,39.57
2023-03-29T07:40:07.581Z,39.44
2023-03-29T07:41:07.627Z,39.40
2023-03-29T07:42:07.684Z,39.47
2023-03-29T07:43:07.757Z,39.57
2023-03-29T07:44:07.735Z,39.70
2023-03-29T07:45:07.764Z,39.46
2023-03-29T07:46:07.802Z,39.67
2023-03-29T07:48:06.933Z,39.60
2023-03-29T07:49:07.813Z,39.75
2023-03-29T07:50:07.844Z,39.89
2023-03-29T07:51:07.860Z,40.20
2023-03-29T07:52:08.363Z,40.30
2023-03-29T07:54:06.854Z,40.35
2023-03-29T07:55:07.874Z,40.53
2023-03-29T07:58:06.871Z,40.83
2023-03-29T07:59:06.922Z,41.07
2023-03-29T08:00:07.956Z,41.04
2023-03-29T08:01:07.329Z,40.81
2023-03-29T08:02:08.003Z,41.25
2023-03-29T08:03:07.160Z,41.36
2023-03-29T08:04:08.306Z,41.13
2023-03-29T08:05:08.240Z,41.28
2023-03-29T08:06:08.226Z,41.45
2023-03-29T08:07:08.245Z,41.20
2023-03-29T08:08:08.324Z,41.35
2023-03-29T08:09:08.357Z,41.11
2023-03-29T08:10:08.430Z,41.48
2023-03-29T08:12:07.516Z,41.66
2023-03-29T08:13:08.590Z,41.48
2023-03-29T08:14:08.644Z,41.78
2023-03-29T08:15:08.690Z,41.50
2023-03-29T08:16:08.728Z,41.61
2023-03-29T08:17:08.835Z,41.90
2023-03-29T08:18:08.871Z,41.85
2023-03-29T08:19:08.900Z,42.04
2023-03-29T08:20:08.963Z,42.16
2023-03-29T08:21:09.030Z,42.01
2023-03-29T08:22:09.047Z,41.70
2023-03-29T08:23:09.064Z,42.09
2023-03-29T08:26:08.875Z,42.50
2023-03-29T08:27:09.097Z,40.81
2023-03-29T08:29:08.113Z,41.39
2023-03-29T08:30:09.149Z,41.11
2023-03-29T08:32:08.103Z,40.77
2023-03-29T08:33:09.153Z,40.87
2023-03-29T08:36:08.202Z,40.87
2023-03-29T08:37:09.184Z,39.49
2023-03-29T08:39:08.201Z,40.15
2023-03-29T08:40:09.235Z,37.65
2023-03-29T08:41:09.239Z,38.13
2023-03-29T08:42:09.243Z,40.06
2023-03-29T08:43:09.367Z,43.28
2023-03-29T08:44:09.294Z,41.31
2023-03-29T08:45:09.321Z,43.28
2023-03-29T08:46:09.423Z,43.45
2023-03-29T08:47:09.351Z,42.41
2023-03-29T08:48:09.359Z,40.39
2023-03-29T08:49:09.352Z,42.23
2023-03-29T08:50:09.351Z,40.73
2023-03-29T08:51:10.175Z,41.94
2023-03-29T08:52:09.405Z,42.07
2023-03-29T08:53:09.464Z,39.70
2023-03-29T08:54:09.461Z,40.61
2023-03-29T08:55:09.481Z,41.70
2023-03-29T08:56:09.507Z,41.38
2023-03-29T08:57:09.538Z,38.73
2023-03-29T08:59:08.589Z,41.00
2023-03-29T09:00:09.624Z,41.23
2023-03-29T09:01:09.648Z,41.03
2023-03-29T09:02:09.807Z,40.97
2023-03-29T09:03:09.801Z,40.80
2023-03-29T09:04:09.919Z,40.86
2023-03-29T09:07:08.780Z,41.13
2023-03-29T09:08:09.833Z,40.87
2023-03-29T09:09:08.895Z,40.68
2023-03-29T09:10:08.947Z,40.62
2023-03-29T09:11:09.979Z,40.58
2023-03-29T09:12:09.995Z,40.57
2023-03-29T09:13:10.042Z,40.51
2023-03-29T09:14:09.041Z,40.60
2023-03-29T09:15:10.075Z,40.67
2023-03-29T09:16:10.128Z,40.84
2023-03-29T09:21:09.090Z,41.39
2023-03-29T09:22:09.146Z,41.41
2023-03-29T09:23:09.215Z,41.27
2023-03-29T09:24:10.258Z,41.40
2023-03-29T09:25:09.328Z,41.60
2023-03-29T09:26:10.377Z,41.70
2023-03-29T09:27:10.425Z,41.82
2023-03-29T09:28:10.498Z,41.82
2023-03-29T09:29:10.547Z,41.91
2023-03-29T09:30:10.571Z,42.03
2023-03-29T09:31:10.648Z,42.05
2023-03-29T09:32:10.664Z,42.17
2023-03-29T09:33:10.783Z,42.15
2023-03-29T09:37:09.938Z,42.35
2023-03-29T09:38:10.994Z,42.36
2023-03-29T09:39:11.023Z,42.46
2023-03-29T09:40:11.044Z,42.60
2023-03-29T09:41:11.092Z,42.77
2023-03-29T09:43:10.095Z,42.82
2023-03-29T09:44:20.802Z,42.90
2023-03-29T09:45:11.118Z,42.80
2023-03-29T09:47:10.116Z,42.58
2023-03-29T09:48:10.470Z,42.76
2023-03-29T09:49:11.153Z,42.70
2023-03-29T09:50:16.826Z,42.60
2023-03-29T09:51:11.080Z,42.56
2023-03-29T09:54:10.077Z,42.27
2023-03-29T09:57:10.086Z,42.03
2023-03-29T09:58:11.027Z,41.91
2023-03-29T09:59:10.031Z,41.89
2023-03-29T10:00:11.017Z,41.87
2023-03-29T10:01:11.042Z,41.88
2023-03-29T10:02:11.149Z,41.84
2023-03-29T10:06:10.311Z,41.69
2023-03-29T10:07:10.348Z,41.59
2023-03-29T10:08:11.416Z,41.55
2023-03-29T10:09:11.450Z,41.52
2023-03-29T10:10:11.523Z,41.45
2023-03-29T10:11:11.581Z,41.46
2023-03-29T10:12:11.633Z,41.40
2023-03-29T10:13:11.728Z,41.37
2023-03-29T10:14:11.741Z,41.34
2023-03-29T10:15:19.635Z,41.36
2023-03-29T10:16:11.828Z,41.34
2023-03-29T10:18:10.826Z,41.23
2023-03-29T10:19:11.748Z,41.17
2023-03-29T10:20:11.751Z,41.16
2023-03-29T10:21:11.768Z,41.13
2023-03-29T10:22:10.731Z,41.09
2023-03-29T10:24:10.722Z,41.08
2023-03-29T10:25:11.701Z,41.06
2023-03-29T10:26:11.715Z,41.01
2023-03-29T10:30:10.665Z,40.92
2023-03-29T10:31:11.668Z,40.91
2023-03-29T10:32:11.675Z,40.86
2023-03-29T10:33:11.688Z,40.84
2023-03-29T10:34:11.663Z,40.83
2023-03-29T10:35:11.629Z,40.83
2023-03-29T10:38:10.623Z,40.79
2023-03-29T10:39:11.615Z,40.76
2023-03-29T10:40:11.605Z,40.74
2023-03-29T10:41:11.652Z,40.79
2023-03-29T10:43:10.760Z,40.74
2023-03-29T10:44:11.933Z,40.75
2023-03-29T10:45:10.873Z,40.74
2023-03-29T10:46:11.954Z,40.76
2023-03-29T10:47:11.977Z,40.72
2023-03-29T10:48:12.030Z,40.69
2023-03-29T10:49:12.098Z,40.69
2023-03-29T10:50:12.158Z,40.67
2023-03-29T10:51:12.208Z,40.65
2023-03-29T10:52:12.285Z,40.66
2023-03-29T10:53:12.357Z,40.62
2023-03-29T10:54:12.410Z,40.63
2023-03-29T10:55:12.428Z,40.62
2023-03-29T10:56:12.486Z,40.64
2023-03-29T10:57:12.611Z,40.62
2023-03-29T10:58:12.587Z,40.62
2023-03-29T10:59:12.638Z,40.61
2023-03-29T11:00:12.726Z,40.58
2023-03-29T11:01:12.803Z,40.61
2023-03-29T11:02:12.896Z,40.55
2023-03-29T11:03:15.801Z,40.59
2023-03-29T11:06:11.816Z,40.61
2023-03-29T11:07:12.801Z,40.55
2023-03-29T11:08:12.800Z,40.58
2023-03-29T11:09:12.802Z,40.57
2023-03-29T11:10:11.778Z,40.55
2023-03-29T11:11:12.759Z,40.56
2023-03-29T11:12:16.210Z,40.55
2023-03-29T11:14:11.767Z,40.55
2023-03-29T11:15:12.772Z,40.53
2023-03-29T11:17:11.720Z,40.54
2023-03-29T11:18:12.717Z,40.54
2023-03-29T11:19:11.717Z,40.49
2023-03-29T11:20:12.881Z,40.51
2023-03-29T11:24:14.711Z,40.52
2023-03-29T11:25:12.751Z,40.53
2023-03-29T11:30:11.669Z,40.53
2023-03-29T11:31:12.671Z,40.54
2023-03-29T11:32:12.667Z,40.58
2023-03-29T11:33:12.658Z,40.54
2023-03-29T11:35:11.628Z,40.62
2023-03-29T11:36:12.671Z,40.66
2023-03-29T11:37:12.625Z,40.68
2023-03-29T11:40:11.621Z,40.68
2023-03-29T11:41:12.610Z,40.64
2023-03-29T11:42:12.572Z,40.65
2023-03-29T11:43:12.565Z,40.65
2023-03-29T11:44:12.592Z,40.65
2023-03-29T11:46:11.550Z,40.65
2023-03-29T11:47:12.533Z,40.67
2023-03-29T11:48:12.537Z,40.66
2023-03-29T11:49:12.535Z,40.64
2023-03-29T11:50:11.533Z,40.61
2023-03-29T11:51:12.509Z,40.61
2023-03-29T11:55:11.588Z,40.52
2023-03-29T11:56:12.632Z,40.51
2023-03-29T11:57:12.749Z,40.49
2023-03-29T11:58:12.719Z,40.47
2023-03-29T11:59:12.777Z,40.42
2023-03-29T12:00:12.822Z,40.42
2023-03-29T12:01:12.865Z,40.43
2023-03-29T12:03:12.088Z,40.40
2023-03-29T12:04:13.126Z,40.39
2023-03-29T12:05:13.115Z,40.36
2023-03-29T12:06:13.176Z,40.34
2023-03-29T12:07:13.233Z,40.31
2023-03-29T12:08:13.302Z,40.30
2023-03-29T12:09:16.189Z,40.30
2023-03-29T12:10:13.362Z,40.30
2023-03-29T12:15:12.320Z,40.28
2023-03-29T12:16:13.347Z,40.28
2023-03-29T12:17:12.295Z,40.24
2023-03-29T12:18:13.285Z,40.23
2023-03-29T12:21:12.279Z,40.20
2023-03-29T12:22:13.255Z,40.19
2023-03-29T12:23:13.267Z,40.19
2023-03-29T12:28:12.319Z,40.12
2023-03-29T12:29:13.403Z,40.18
2023-03-29T12:30:13.449Z,40.28
2023-03-29T12:31:13.510Z,40.32
2023-03-29T12:32:13.574Z,40.35
2023-03-29T12:33:15.804Z,40.36
2023-03-29T12:37:12.599Z,40.44
2023-03-29T12:38:13.597Z,40.51
2023-03-29T12:42:12.581Z,40.51
2023-03-29T12:43:13.547Z,40.50
2023-03-29T12:44:13.551Z,40.52
2023-03-29T12:46:12.551Z,40.64
2023-03-29T12:47:13.523Z,40.67
2023-03-29T12:49:12.508Z,40.68
2023-03-29T12:50:13.506Z,40.71
2023-03-29T12:54:12.490Z,40.64
2023-03-29T12:55:13.478Z,40.60
2023-03-29T13:00:12.693Z,40.37
2023-03-29T13:01:13.854Z,40.33
2023-03-29T13:02:13.955Z,40.32
2023-03-29T13:03:14.464Z,40.25
2023-03-29T13:06:13.077Z,40.13
2023-03-29T13:10:13.094Z,40.00
2023-03-29T13:11:14.096Z,39.99
2023-03-29T13:12:13.133Z,39.90
2023-03-29T13:13:14.076Z,39.87
2023-03-29T13:14:14.081Z,39.84
2023-03-29T13:19:13.057Z,39.64
2023-03-29T13:20:14.024Z,39.60
2023-03-29T13:22:13.006Z,39.48
2023-03-29T13:23:16.956Z,39.50
2023-03-29T13:24:14.034Z,39.42
2023-03-29T13:29:12.954Z,39.18
2023-03-29T13:30:13.954Z,39.13
2023-03-29T13:32:12.929Z,39.05
2023-03-29T13:33:13.946Z,38.97
2023-03-29T13:35:12.918Z,38.90
2023-03-29T13:36:13.945Z,38.86
2023-03-29T13:37:12.918Z,38.85
2023-03-29T13:38:12.925Z,38.81
2023-03-29T13:41:12.984Z,38.71
2023-03-29T13:42:13.000Z,38.62
2023-03-29T13:43:14.035Z,38.63
2023-03-29T13:44:14.076Z,38.64
2023-03-29T13:45:14.106Z,38.58
2023-03-29T13:46:14.166Z,38.54
2023-03-29T13:47:13.182Z,38.52
2023-03-29T13:48:14.312Z,38.58
2023-03-29T13:49:14.380Z,38.71
2023-03-29T13:50:14.369Z,38.95
2023-03-29T13:51:14.431Z,39.31
2023-03-29T13:52:14.483Z,39.44
2023-03-29T13:53:14.541Z,39.46
2023-03-29T13:54:14.617Z,39.48
2023-03-29T13:55:14.682Z,39.50
2023-03-29T13:56:14.729Z,39.49
2023-03-29T13:57:14.873Z,39.46
2023-03-29T13:58:14.860Z,39.52
2023-03-29T13:59:14.922Z,39.50
2023-03-29T14:00:14.975Z,39.55
2023-03-29T14:01:14.052Z,39.54
2023-03-29T14:02:15.092Z,39.53
2023-03-29T14:04:14.201Z,39.54
2023-03-29T14:05:15.307Z,39.49
2023-03-29T14:06:15.321Z,39.51
2023-03-29T14:07:15.369Z,39.51
2023-03-29T14:09:14.510Z,39.49
2023-03-29T14:10:14.535Z,39.47
2023-03-29T14:11:15.575Z,39.44
2023-03-29T14:12:15.605Z,39.40
2023-03-29T14:13:15.649Z,39.39
2023-03-29T14:14:15.692Z,39.33
2023-03-29T14:15:15.778Z,39.32
2023-03-29T14:18:14.927Z,39.24
2023-03-29T14:19:15.925Z,39.17
2023-03-29T14:20:15.966Z,39.19
2023-03-29T14:21:16.039Z,39.18
2023-03-29T14:24:15.112Z,39.07
2023-03-29T14:25:15.191Z,39.01
2023-03-29T14:26:16.248Z,38.97
2023-03-29T14:28:15.297Z,38.92
2023-03-29T14:29:16.324Z,38.89
2023-03-29T14:34:15.456Z,38.70
2023-03-29T14:35:16.510Z,38.63
2023-03-29T14:36:16.610Z,38.64
2023-03-29T14:42:15.719Z,38.44
2023-03-29T14:43:15.703Z,38.43
2023-03-29T14:44:16.714Z,38.40
2023-03-29T14:45:16.760Z,38.34
2023-03-29T14:46:16.791Z,38.30
2023-03-29T14:47:16.750Z,38.28
2023-03-29T14:48:16.800Z,38.24
2023-03-29T14:49:16.814Z,38.26
2023-03-29T14:50:16.782Z,38.18
2023-03-29T14:51:16.754Z,38.13
2023-03-29T14:52:16.757Z,38.14
2023-03-29T14:53:16.789Z,38.13
2023-03-29T14:59:15.774Z,37.91
2023-03-29T15:00:16.800Z,37.93
2023-03-29T15:01:16.844Z,37.88
2023-03-29T15:02:16.813Z,37.85
2023-03-29T15:04:15.780Z,37.81
2023-03-29T15:05:15.788Z,37.77
2023-03-29T15:06:16.784Z,37.77
2023-03-29T15:09:15.814Z,37.65
2023-03-29T15:10:16.757Z,37.65
2023-03-29T15:11:16.776Z,37.64
2023-03-29T15:12:15.750Z,37.62
2023-03-29T15:13:16.764Z,37.57
2023-03-29T15:14:16.808Z,37.63
2023-03-29T15:17:15.793Z,37.74
2023-03-29T15:18:16.846Z,37.63
2023-03-29T15:19:16.802Z,37.62
2023-03-29T15:20:16.809Z,37.74
2023-03-29T15:21:18.170Z,37.72
2023-03-29T15:22:15.788Z,37.79
2023-03-29T15:23:16.824Z,37.85
2023-03-29T15:24:16.804Z,37.86
2023-03-29T15:25:16.838Z,37.78
2023-03-29T15:27:15.827Z,37.73
2023-03-29T15:28:16.814Z,37.71
2023-03-29T15:29:16.839Z,37.64
